Time;durP1;ratioP1;P1;durP2;ratioP2;P2;SDS_P1;SDS_P2;PMS_P1;PMS_P2;Temp;Humidity;BMP_temperature;BMP_pressure;BME280_temperature;BME280_humidity;BME280_pressure;Samples;Min_cycle;Max_cycle;Signal;HPM_P1;HPM_P2
2022/04/29 00:00:53;;;;;;;15.73;7.10;;;;;;;11.22;61.34;102740.06;3588346;39;20063;-65
2022/04/29 00:03:21;;;;;;;11.68;6.50;;;;;;;11.24;60.91;102740.03;3590432;39;20052;-67
2022/04/29 00:05:47;;;;;;;11.93;5.93;;;;;;;11.18;60.97;102730.34;3596790;39;20055;-65
2022/04/29 00:08:14;;;;;;;13.65;6.55;;;;;;;11.19;61.06;102740.16;3587663;39;20043;-66
2022/04/29 00:10:41;;;;;;;15.85;6.32;;;;;;;11.02;61.89;102731.78;3586197;39;20636;-65
2022/04/29 00:13:11;;;;;;;13.20;6.80;;;;;;;11.04;61.51;102733.50;3590465;39;20059;-65
2022/04/29 00:15:37;;;;;;;15.82;6.63;;;;;;;10.97;62.19;102726.53;3595150;39;20062;-65
2022/04/29 00:18:03;;;;;;;11.05;6.55;;;;;;;11.00;61.63;102734.50;3587427;39;20080;-65
2022/04/29 00:20:29;;;;;;;11.90;6.50;;;;;;;10.97;62.13;102715.78;3590178;39;20076;-66
2022/04/29 00:22:54;;;;;;;12.50;6.65;;;;;;;10.77;61.73;102688.66;3588526;39;20046;-65
2022/04/29 00:25:20;;;;;;;11.30;6.43;;;;;;;10.95;62.29;102731.13;3591889;39;20051;-66
2022/04/29 00:27:45;;;;;;;11.98;6.68;;;;;;;10.89;61.77;102726.81;3586752;39;20055;-65
2022/04/29 00:30:12;;;;;;;12.77;6.63;;;;;;;10.83;62.62;102734.19;3594923;39;20077;-65
2022/04/29 00:32:40;;;;;;;9.85;6.55;;;;;;;10.78;62.16;102723.56;3584999;39;20709;-65
2022/04/29 00:35:09;;;;;;;14.98;7.28;;;;;;;10.78;62.10;102731.63;3596610;39;20050;-65
2022/04/29 00:37:51;;;;;;;12.32;6.68;;;;;;;10.58;62.59;102700.00;3584256;39;20922;-65
2022/04/29 00:40:20;;;;;;;11.77;7.10;;;;;;;10.67;63.06;102729.31;3593948;39;20102;-65
2022/04/29 00:42:46;;;;;;;11.45;6.47;;;;;;;10.63;62.99;102724.09;3590046;39;20875;-65
2022/04/29 00:45:14;;;;;;;19.02;6.97;;;;;;;10.62;63.80;102730.38;3597101;39;20396;-66
2022/04/29 00:47:42;;;;;;;12.98;7.35;;;;;;;10.60;63.93;102722.38;3586243;39;20067;-65
2022/04/29 00:50:10;;;;;;;13.82;7.22;;;;;;;10.55;63.01;102715.38;3592105;39;20044;-65
2022/04/29 00:52:51;;;;;;;13.82;7.60;;;;;;;10.56;63.72;102715.34;3594008;39;20601;-65
2022/04/29 00:55:17;;;;;;;15.13;7.45;;;;;;;10.52;63.84;102716.34;3586935;39;20040;-66
2022/04/29 00:57:51;;;;;;;13.30;7.40;;;;;;;10.51;63.80;102724.47;3592211;39;20062;-67
2022/04/29 01:00:19;;;;;;;14.57;7.43;;;;;;;10.52;63.31;102718.16;3591289;39;20051;-65
2022/04/29 01:02:52;;;;;;;13.60;7.65;;;;;;;10.45;63.29;102718.34;3584057;39;20063;-66
2022/04/29 01:05:23;;;;;;;16.90;7.80;;;;;;;10.43;63.88;102711.25;3590004;39;20067;-66
2022/04/29 01:07:50;;;;;;;13.75;7.28;;;;;;;10.39;64.34;102705.09;3594371;39;20059;-66
2022/04/29 01:10:20;;;;;;;14.23;7.50;;;;;;;10.39;64.16;102715.84;3587022;39;20370;-65
2022/04/29 01:12:53;;;;;;;18.00;7.80;;;;;;;10.22;64.32;102691.25;3588692;39;20060;-64
2022/04/29 01:15:19;;;;;;;13.85;7.60;;;;;;;10.30;64.26;102702.69;3586909;39;20132;-65
2022/04/29 01:17:51;;;;;;;13.20;8.05;;;;;;;10.27;64.23;102699.19;3592839;39;20063;-65
2022/04/29 01:20:25;;;;;;;17.08;7.65;;;;;;;10.22;64.68;102702.88;3584173;39;20051;-66
2022/04/29 01:22:51;;;;;;;10.20;7.50;;;;;;;10.10;64.82;102686.25;3591371;39;20043;-64
2022/04/29 01:25:16;;;;;;;11.23;7.60;;;;;;;10.10;64.92;102692.50;3587194;39;20121;-65
2022/04/29 01:27:42;;;;;;;14.70;7.63;;;;;;;10.12;65.29;102681.72;3589319;39;20063;-64
2022/04/29 01:30:15;;;;;;;15.95;7.45;;;;;;;10.00;64.75;102675.78;3587156;39;20040;-65
2022/04/29 01:32:42;;;;;;;12.80;7.97;;;;;;;9.95;65.03;102666.97;3591805;39;20694;-64
2022/04/29 01:35:11;;;;;;;12.20;7.72;;;;;;;9.92;64.68;102661.69;3582931;39;20086;-65
2022/04/29 01:37:37;;;;;;;18.23;8.23;;;;;;;9.76;64.76;102638.88;3592621;39;20058;-64
2022/04/29 01:40:05;;;;;;;16.20;8.18;;;;;;;9.97;65.27;102675.00;3598221;39;20043;-64
2022/04/29 01:42:32;;;;;;;14.02;7.85;;;;;;;9.93;64.39;102668.84;3583559;39;20063;-65
2022/04/29 01:44:58;;;;;;;13.50;8.10;;;;;;;9.92;64.89;102664.38;3595105;39;20096;-64
2022/04/29 01:47:23;;;;;;;14.23;7.85;;;;;;;9.91;64.97;102670.66;3584706;39;20059;-65
2022/04/29 01:49:49;;;;;;;16.55;8.10;;;;;;;9.85;64.78;102670.84;3579898;39;20078;-67
2022/04/29 01:52:14;;;;;;;16.55;8.32;;;;;;;9.78;64.65;102661.22;3589252;39;20058;-64
2022/04/29 01:54:40;;;;;;;12.45;7.70;;;;;;;9.74;64.73;102663.13;3589546;39;20052;-64
2022/04/29 01:57:08;;;;;;;17.00;8.43;;;;;;;9.71;65.66;102670.38;3586561;39;20059;-65
2022/04/29 01:59:35;;;;;;;11.77;8.07;;;;;;;9.67;65.20;102676.75;3593398;39;20067;-65
2022/04/29 02:02:03;;;;;;;12.18;7.93;;;;;;;9.63;65.23;102672.41;3592610;39;20067;-65
2022/04/29 02:04:29;;;;;;;12.85;8.10;;;;;;;9.60;65.72;102669.78;3594198;39;20060;-65
2022/04/29 02:06:55;;;;;;;17.73;8.65;;;;;;;9.57;65.04;102660.03;3583555;39;20382;-64
2022/04/29 02:09:22;;;;;;;14.02;8.23;;;;;;;9.56;65.41;102662.75;3591827;39;20068;-65
2022/04/29 02:12:06;;;;;;;14.57;8.00;;;;;;;9.51;65.67;102660.19;3589285;39;20064;-64
2022/04/29 02:14:33;;;;;;;15.02;9.32;;;;;;;9.49;66.04;102659.38;3587261;39;20658;-65
2022/04/29 02:17:01;;;;;;;13.50;8.68;;;;;;;9.51;65.50;102660.19;3590068;39;20104;-65
2022/04/29 02:19:28;;;;;;;13.85;7.95;;;;;;;9.48;65.99;102666.56;3593528;39;20062;-65
2022/04/29 02:21:55;;;;;;;13.45;7.78;;;;;;;9.46;65.45;102662.13;3581896;39;20059;-64
2022/04/29 02:24:20;;;;;;;16.73;8.05;;;;;;;9.41;65.15;102654.19;3592798;39;20054;-65
2022/04/29 02:26:46;;;;;;;10.45;8.02;;;;;;;9.38;66.14;102659.66;3597624;39;20049;-65
2022/04/29 02:29:12;;;;;;;10.50;8.07;;;;;;;9.01;65.77;102606.13;3587932;39;20472;-65
2022/04/29 02:31:38;;;;;;;16.52;8.88;;;;;;;9.39;66.00;102656.06;3588519;39;20072;-64
2022/04/29 02:34:04;;;;;;;14.52;8.40;;;;;;;9.38;66.16;102654.28;3597622;39;20055;-65
2022/04/29 02:36:29;;;;;;;13.85;9.23;;;;;;;9.33;66.07;102655.34;3594074;39;20619;-65
2022/04/29 02:38:55;;;;;;;14.70;8.10;;;;;;;9.37;65.93;102662.38;3583254;39;20059;-64
2022/04/29 02:41:20;;;;;;;14.63;8.48;;;;;;;9.38;65.81;102653.41;3591985;39;20119;-65
2022/04/29 02:43:46;;;;;;;14.05;8.38;;;;;;;9.34;65.68;102657.97;3590180;39;20402;-65
2022/04/29 02:46:12;;;;;;;15.48;8.25;;;;;;;9.32;65.58;102651.75;3593297;39;20147;-65
2022/04/29 02:48:37;;;;;;;16.73;8.30;;;;;;;9.29;66.40;102649.16;3594778;39;20054;-65
2022/04/29 02:51:04;;;;;;;15.85;7.85;;;;;;;9.29;66.53;102665.25;3601906;39;20082;-64
2022/04/29 02:53:31;;;;;;;13.02;8.15;;;;;;;9.29;65.98;102668.84;3588887;39;20043;-65
2022/04/29 02:55:57;;;;;;;14.05;8.48;;;;;;;9.25;66.49;102655.53;3594521;39;20345;-65
2022/04/29 02:58:23;;;;;;;18.15;8.73;;;;;;;9.22;66.07;102656.50;3590475;39;20232;-66
2022/04/29 03:00:49;;;;;;;17.20;8.15;;;;;;;9.21;66.42;102660.13;3596537;39;20051;-65
2022/04/29 03:03:15;;;;;;;17.90;8.85;;;;;;;9.14;66.32;102647.78;3591775;39;20052;-66
2022/04/29 03:05:40;;;;;;;14.52;8.43;;;;;;;9.11;66.14;102639.81;3595712;39;20074;-64
2022/04/29 03:08:07;;;;;;;17.25;9.13;;;;;;;9.07;66.49;102635.47;3598540;39;20309;-64
2022/04/29 03:10:34;;;;;;;12.90;8.60;;;;;;;9.18;66.31;102640.53;3582940;39;20055;-64
2022/04/29 03:13:00;;;;;;;13.35;8.75;;;;;;;9.18;66.53;102640.53;3592221;39;20044;-64
2022/04/29 03:15:27;;;;;;;15.18;9.45;;;;;;;9.15;66.39;102629.88;3585193;39;20621;-64
2022/04/29 03:20:43;;;;;;;13.80;8.68;;;;;;;9.18;66.18;102624.44;3588348;39;20113;-64
2022/04/29 03:23:09;;;;;;;14.43;9.07;;;;;;;9.09;66.17;102590.69;3595597;39;20648;-65
2022/04/29 03:25:35;;;;;;;16.27;9.32;;;;;;;8.92;66.52;102564.31;3575863;39;20073;-64
2022/04/29 03:28:05;;;;;;;16.40;9.13;;;;;;;9.17;66.58;102633.41;3596161;39;20052;-64
2022/04/29 03:30:30;;;;;;;21.67;8.95;;;;;;;9.11;66.20;102630.91;3593607;39;20055;-64
2022/04/29 03:33:03;;;;;;;17.60;9.52;;;;;;;9.14;66.52;102639.75;3593267;39;20054;-66
2022/04/29 03:35:30;;;;;;;17.67;9.25;;;;;;;9.07;67.00;102633.66;3582177;39;20633;-64
2022/04/29 03:37:56;;;;;;;16.23;9.40;;;;;;;9.10;66.36;102643.41;3591028;39;20050;-64
2022/04/29 03:40:25;;;;;;;16.25;8.85;;;;;;;9.10;66.26;102650.56;3581350;39;20101;-64
2022/04/29 03:42:54;;;;;;;17.15;10.15;;;;;;;9.02;66.34;102651.66;3594237;39;20048;-64
2022/04/29 03:45:26;;;;;;;16.80;9.70;;;;;;;9.03;67.02;102648.06;3593551;39;20055;-65
2022/04/29 03:47:54;;;;;;;21.23;10.35;;;;;;;8.99;67.21;102641.03;3599187;39;20047;-63
2022/04/29 03:50:23;;;;;;;19.60;9.27;;;;;;;8.94;66.93;102629.50;3591883;39;20051;-65
2022/04/29 03:53:00;;;;;;;16.35;9.52;;;;;;;8.96;66.62;102629.50;3595226;39;20653;-64
2022/04/29 03:55:29;;;;;;;13.80;10.25;;;;;;;8.97;67.27;102628.56;3593961;39;20050;-65
2022/04/29 03:57:57;;;;;;;16.13;9.85;;;;;;;8.99;67.16;102635.66;3588475;39;20333;-64
2022/04/29 04:00:31;;;;;;;19.48;9.80;;;;;;;8.99;67.12;102635.66;3594003;39;20043;-65
2022/04/29 04:03:00;;;;;;;19.42;10.38;;;;;;;9.01;67.00;102633.81;3594726;39;20048;-64
2022/04/29 04:05:26;;;;;;;17.17;10.35;;;;;;;8.59;67.20;102563.41;3583201;39;20047;-64
2022/04/29 04:07:52;;;;;;;17.15;10.25;;;;;;;8.94;66.88;102621.47;3590680;39;20052;-64
2022/04/29 04:10:18;;;;;;;18.60;10.43;;;;;;;8.92;67.22;102623.34;3584515;39;20036;-65
2022/04/29 04:12:50;;;;;;;18.35;10.55;;;;;;;8.94;67.27;102648.28;3587128;39;20066;-63
2022/04/29 04:15:23;;;;;;;20.42;10.20;;;;;;;8.91;67.64;102648.41;3595691;39;20055;-65
2022/04/29 04:17:49;;;;;;;19.80;10.45;;;;;;;8.78;67.20;102615.63;3626694;22;20070;-64
2022/04/29 04:20:16;;;;;;;15.80;9.65;;;;;;;8.82;67.49;102622.69;3584488;39;20047;-64
2022/04/29 04:22:42;;;;;;;18.40;10.63;;;;;;;8.80;67.78;102620.97;3583383;39;20059;-64
2022/04/29 04:25:13;;;;;;;15.15;10.35;;;;;;;8.63;67.77;102586.56;3594671;39;20059;-64
2022/04/29 04:27:40;;;;;;;15.23;10.55;;;;;;;8.86;66.90;102622.63;3581309;39;20371;-64
2022/04/29 04:30:08;;;;;;;18.23;10.43;;;;;;;8.84;67.69;102625.31;3581202;40;20052;-62
2022/04/29 04:32:38;;;;;;;15.45;10.73;;;;;;;8.79;67.56;102625.44;3586606;40;20059;-62
2022/04/29 04:35:06;;;;;;;20.08;10.70;;;;;;;8.79;67.83;102625.44;3587299;40;20659;-63
2022/04/29 04:37:33;;;;;;;18.15;10.70;;;;;;;8.75;68.01;102622.88;3578989;40;20055;-62
2022/04/29 04:40:00;;;;;;;24.25;12.68;;;;;;;8.80;67.77;102620.97;3575654;40;20055;-63
2022/04/29 04:42:26;;;;;;;21.05;11.73;;;;;;;8.82;68.15;102619.13;3585972;40;20060;-63
2022/04/29 04:44:53;;;;;;;19.23;10.73;;;;;;;8.80;67.82;102612.91;3573170;40;20067;-62
2022/04/29 04:47:20;;;;;;;19.70;11.85;;;;;;;8.76;68.22;102616.59;3584051;40;20063;-62
2022/04/29 04:49:46;;;;;;;18.25;11.50;;;;;;;8.79;67.53;102619.22;3585739;40;20051;-62
2022/04/29 04:52:12;;;;;;;18.13;11.32;;;;;;;8.79;67.46;102614.72;3581930;40;20047;-61
2022/04/29 04:54:38;;;;;;;21.23;11.38;;;;;;;8.76;67.42;102616.59;3578618;39;20051;-62
2022/04/29 04:57:05;;;;;;;19.85;10.98;;;;;;;8.76;67.35;102621.97;3582239;40;20657;-61
2022/04/29 04:59:31;;;;;;;19.75;11.93;;;;;;;8.74;67.99;102615.75;3575056;40;20055;-62
2022/04/29 05:01:58;;;;;;;19.77;11.57;;;;;;;8.72;67.67;102618.50;3576823;40;20059;-62
2022/04/29 05:04:23;;;;;;;19.42;11.27;;;;;;;8.48;67.98;102579.75;3582453;40;20283;-62
2022/04/29 05:06:51;;;;;;;19.90;12.05;;;;;;;8.60;68.49;102603.59;3584658;40;20063;-63
2022/04/29 05:09:17;;;;;;;15.25;11.30;;;;;;;8.73;67.92;102619.38;3585763;40;20065;-63
2022/04/29 05:11:42;;;;;;;20.50;11.68;;;;;;;8.70;67.75;102623.00;3574253;39;20064;-63
2022/04/29 05:14:08;;;;;;;16.80;11.52;;;;;;;8.64;68.20;102601.69;3571293;39;20055;-62
2022/04/29 05:16:34;;;;;;;21.27;12.02;;;;;;;8.72;68.60;102625.63;3579370;40;20070;-63
2022/04/29 05:18:59;;;;;;;18.23;11.40;;;;;;;8.75;68.18;102620.19;3584636;40;20700;-63
2022/04/29 05:21:25;;;;;;;19.23;11.52;;;;;;;8.76;67.73;102617.47;3586350;40;20047;-63
2022/04/29 05:23:50;;;;;;;20.40;12.20;;;;;;;8.76;68.15;102620.16;3584564;40;20055;-63
2022/04/29 05:26:16;;;;;;;19.80;12.13;;;;;;;8.80;67.70;102619.16;3588045;40;20075;-62
2022/04/29 05:28:42;;;;;;;15.80;11.63;;;;;;;8.79;67.82;102617.41;3578666;40;20387;-63
2022/04/29 05:31:07;;;;;;;19.13;12.38;;;;;;;8.78;67.79;102625.47;3569302;40;20058;-63
2022/04/29 05:33:34;;;;;;;19.58;11.75;;;;;;;8.77;68.13;102615.69;3581757;40;20064;-63
2022/04/29 05:36:03;;;;;;;24.52;12.77;;;;;;;8.83;68.21;102628.94;3587599;40;20101;-64
2022/04/29 05:42:14;;;;;;;19.48;12.45;;;;;;;8.85;67.33;102629.78;3588291;40;20094;-63
2022/04/29 05:44:00;;;;;;;19.80;11.90;;;;;;;8.92;67.03;102634.06;3587053;40;20108;-62
2022/04/29 05:46:25;;;;;;;20.80;12.85;;;;;;;8.95;67.82;102636.66;3576745;40;20047;-63
2022/04/29 05:48:51;;;;;;;19.27;12.10;;;;;;;8.98;66.96;102638.38;3579995;40;20071;-62
2022/04/29 05:51:16;;;;;;;17.92;12.10;;;;;;;9.00;67.46;102631.16;3583375;40;20055;-62
2022/04/29 05:53:42;;;;;;;16.60;12.45;;;;;;;9.04;67.04;102638.22;3584952;40;20120;-63
2022/04/29 05:56:08;;;;;;;21.42;12.27;;;;;;;9.03;66.81;102640.00;3587405;40;20338;-62
2022/04/29 05:58:33;;;;;;;21.75;13.13;;;;;;;9.02;66.75;102640.94;3574171;40;20051;-63
2022/04/29 06:00:59;;;;;;;22.80;12.90;;;;;;;9.04;66.67;102646.28;3587419;40;20055;-62
2022/04/29 06:03:25;;;;;;;21.02;12.95;;;;;;;9.00;66.54;102637.41;3577251;40;20092;-62
2022/04/29 06:05:51;;;;;;;19.52;13.15;;;;;;;9.01;66.61;102630.25;3580171;40;20063;-63
2022/04/29 06:08:17;;;;;;;22.20;12.93;;;;;;;9.02;66.86;102623.97;3589213;40;20052;-63
2022/04/29 06:10:42;;;;;;;20.63;13.13;;;;;;;8.14;66.43;102483.22;3586421;40;20128;-64
2022/04/29 06:13:11;;;;;;;20.70;14.20;;;;;;;9.19;66.42;102643.16;3584239;40;20140;-63
2022/04/29 06:15:37;;;;;;;17.63;12.90;;;;;;;9.21;66.22;102641.34;3587268;40;20047;-64
2022/04/29 06:18:03;;;;;;;20.33;12.75;;;;;;;9.25;66.84;102648.38;3577953;39;20675;-63
2022/04/29 06:20:29;;;;;;;20.25;13.02;;;;;;;9.09;65.65;102614.81;3583551;40;20046;-62
2022/04/29 06:22:56;;;;;;;21.13;12.82;;;;;;;9.37;66.08;102649.84;3581868;40;20052;-64
2022/04/29 06:25:25;;;;;;;18.95;12.73;;;;;;;9.44;65.70;102646.06;3587258;40;20087;-64
2022/04/29 06:27:51;;;;;;;22.65;12.82;;;;;;;9.43;65.63;102636.25;3582247;40;20695;-62
2022/04/29 06:30:17;;;;;;;20.27;12.38;;;;;;;9.57;64.95;102649.28;3584154;40;20052;-63
2022/04/29 06:32:43;;;;;;;18.83;12.45;;;;;;;9.65;65.28;102652.63;3576686;40;20276;-63
2022/04/29 06:35:09;;;;;;;20.38;12.77;;;;;;;9.71;65.19;102659.66;3584308;40;20081;-62
2022/04/29 06:37:36;;;;;;;20.67;12.77;;;;;;;9.76;64.99;102666.63;3587973;40;20063;-63
2022/04/29 06:40:03;;;;;;;24.17;13.63;;;;;;;9.82;64.60;102657.50;3587407;40;20722;-63
2022/04/29 06:42:29;;;;;;;18.70;12.40;;;;;;;9.92;63.53;102667.06;3585744;40;20051;-63
2022/04/29 06:44:55;;;;;;;22.58;13.23;;;;;;;9.93;63.69;102667.97;3579715;39;20067;-63
2022/04/29 06:47:21;;;;;;;20.52;12.35;;;;;;;9.92;64.16;102655.44;3579840;40;20054;-63
2022/04/29 06:49:46;;;;;;;22.05;13.05;;;;;;;9.97;63.50;102656.19;3585349;40;20052;-63
2022/04/29 06:52:12;;;;;;;23.08;13.70;;;;;;;10.00;63.13;102654.28;3586934;40;20126;-63
2022/04/29 06:54:39;;;;;;;21.05;12.75;;;;;;;10.05;63.74;102646.06;3586342;40;20092;-64
2022/04/29 06:57:05;;;;;;;22.60;12.57;;;;;;;10.10;62.82;102654.00;3581872;40;20068;-63
2022/04/29 06:59:31;;;;;;;18.40;12.43;;;;;;;10.13;63.36;102659.28;3587404;40;20204;-63
2022/04/29 07:01:58;;;;;;;18.42;12.60;;;;;;;10.18;63.01;102660.00;3587276;40;20570;-63
2022/04/29 07:04:28;;;;;;;28.45;14.25;;;;;;;10.30;62.32;102666.84;3575616;40;20084;-63
2022/04/29 07:06:56;;;;;;;23.80;12.60;;;;;;;10.37;62.37;102673.78;3574180;40;20672;-63
2022/04/29 07:09:23;;;;;;;22.92;12.30;;;;;;;10.43;62.40;102669.13;3581885;40;20055;-63
2022/04/29 07:11:49;;;;;;;18.15;12.70;;;;;;;10.53;62.57;102668.81;3582434;40;20108;-64
2022/04/29 07:14:14;;;;;;;21.73;12.70;;;;;;;10.65;61.72;102663.03;3583320;40;20052;-63
2022/04/29 07:16:40;;;;;;;20.30;13.27;;;;;;;10.53;61.33;102625.78;3582955;40;20069;-63
2022/04/29 07:19:06;;;;;;;19.65;12.77;;;;;;;10.84;60.85;102674.94;3578116;40;20055;-62
2022/04/29 07:21:31;;;;;;;22.17;12.90;;;;;;;10.97;60.55;102674.53;3581537;40;20052;-63
2022/04/29 07:23:59;;;;;;;24.27;12.77;;;;;;;11.14;60.80;102658.72;3578841;39;20544;-63
2022/04/29 07:26:25;;;;;;;17.23;12.38;;;;;;;11.34;59.68;102661.56;3588876;40;20044;-62
2022/04/29 07:28:50;;;;;;;19.85;12.57;;;;;;;11.46;60.25;102646.78;3573185;40;20099;-63
2022/04/29 07:31:16;;;;;;;20.45;12.63;;;;;;;11.72;58.66;102664.69;3585478;40;20051;-63
2022/04/29 07:33:41;;;;;;;20.17;12.65;;;;;;;11.90;57.86;102668.53;3585638;40;20063;-64
2022/04/29 07:41:44;;;;;;;17.70;13.05;;;;;;;11.99;57.36;102662.81;3587111;40;20459;-63
2022/04/29 07:44:10;;;;;;;20.60;13.40;;;;;;;11.98;57.76;102654.75;3586161;40;20382;-63
2022/04/29 07:46:37;;;;;;;25.90;14.05;;;;;;;12.11;58.54;102661.44;3582572;40;20056;-63
2022/04/29 07:49:06;;;;;;;21.95;12.60;;;;;;;12.26;57.14;102668.06;3580709;40;20675;-62
2022/04/29 07:51:31;;;;;;;20.48;13.38;;;;;;;12.36;57.46;102663.16;3577209;40;20066;-63
2022/04/29 07:53:57;;;;;;;20.10;13.10;;;;;;;12.51;57.32;102667.94;3579122;39;20052;-62
2022/04/29 07:56:23;;;;;;;21.85;13.85;;;;;;;12.69;56.50;102669.91;3587508;40;20063;-62
2022/04/29 07:58:48;;;;;;;22.67;13.63;;;;;;;12.69;56.23;102669.91;3584703;40;20056;-63
2022/04/29 08:01:16;;;;;;;23.00;13.40;;;;;;;12.74;56.37;102669.69;3587540;40;20047;-62
2022/04/29 08:03:42;;;;;;;20.13;13.50;;;;;;;11.94;55.49;102530.03;3586345;40;20100;-63
2022/04/29 08:06:08;;;;;;;23.23;13.48;;;;;;;12.79;56.49;102678.50;3567619;40;20191;-62
2022/04/29 08:08:37;;;;;;;22.30;13.23;;;;;;;12.80;56.22;102674.84;3581507;40;20332;-63
2022/04/29 08:11:03;;;;;;;26.40;14.05;;;;;;;12.81;56.10;102679.28;3572582;39;22619;-63
2022/04/29 08:13:30;;;;;;;21.10;14.25;;;;;;;12.76;56.40;102674.09;3586413;40;20052;-62
2022/04/29 08:15:58;;;;;;;22.38;13.73;;;;;;;12.71;56.80;102670.69;3585837;40;20728;-62
2022/04/29 08:18:26;;;;;;;20.45;13.23;;;;;;;12.68;56.66;102673.53;3586266;40;20408;-62
2022/04/29 08:20:53;;;;;;;22.83;13.55;;;;;;;12.75;56.91;102668.78;3585148;40;20136;-62
2022/04/29 08:23:18;;;;;;;21.13;13.82;;;;;;;12.88;56.34;102663.75;3574829;40;20460;-63
2022/04/29 08:25:44;;;;;;;19.58;12.95;;;;;;;13.00;56.00;102679.41;3578786;40;20064;-63
2022/04/29 08:28:10;;;;;;;23.30;13.18;;;;;;;12.94;55.50;102652.66;3580018;39;20054;-63
2022/04/29 08:30:36;;;;;;;20.75;13.50;;;;;;;13.09;55.74;102673.63;3586179;40;20682;-64
2022/04/29 08:33:01;;;;;;;23.70;13.05;;;;;;;13.12;56.34;102673.47;3581057;40;20060;-63
2022/04/29 08:35:29;;;;;;;20.38;13.10;;;;;;;13.14;55.79;102677.00;3586564;40;20048;-62
2022/04/29 08:37:57;;;;;;;20.10;12.65;;;;;;;13.16;54.93;102683.22;3570704;40;20104;-62
2022/04/29 08:40:24;;;;;;;25.08;14.50;;;;;;;13.19;55.11;102677.69;3579731;40;20400;-62
2022/04/29 08:42:50;;;;;;;21.55;13.75;;;;;;;13.17;56.22;102668.78;3585711;40;20072;-63
2022/04/29 08:45:18;;;;;;;20.67;13.60;;;;;;;13.30;55.44;102679.09;3577229;40;20048;-63
2022/04/29 08:47:47;;;;;;;18.25;13.02;;;;;;;13.40;55.00;102675.91;3584235;40;20060;-65
2022/04/29 08:50:19;;;;;;;20.30;12.85;;;;;;;13.48;54.42;102680.97;3584128;40;20052;-63
2022/04/29 08:52:48;;;;;;;21.70;13.95;;;;;;;13.60;54.37;102677.69;3573746;40;20056;-64
2022/04/29 09:00:44;;;;;;;18.88;13.68;;;;;;;13.54;54.67;102596.03;3581901;40;20054;-64
2022/04/29 09:03:16;;;;;;;19.08;13.20;;;;;;;13.94;54.65;102646.44;3584513;40;20496;-64
2022/04/29 09:05:43;;;;;;;19.67;13.05;;;;;;;13.87;54.33;102617.94;3581220;40;20056;-64
2022/04/29 09:08:17;;;;;;;21.00;13.70;;;;;;;14.05;52.61;102649.53;3576737;40;20087;-63
2022/04/29 09:10:56;;;;;;;22.58;13.20;;;;;;;14.03;53.53;102662.22;3571358;39;20063;-64
2022/04/29 09:13:25;;;;;;;21.67;13.55;;;;;;;14.08;53.83;102670.09;3582265;40;20055;-64
2022/04/29 09:15:58;;;;;;;19.00;13.18;;;;;;;14.08;53.71;102676.41;3579872;39;20060;-63
2022/04/29 09:18:39;;;;;;;19.02;12.93;;;;;;;14.09;53.61;102664.66;3584985;40;20057;-61
2022/04/29 09:21:11;;;;;;;19.85;13.68;;;;;;;14.14;53.52;102665.31;3583428;40;20062;-62
2022/04/29 09:23:41;;;;;;;22.42;12.90;;;;;;;14.27;53.00;102671.03;3586344;40;20435;-62
2022/04/29 09:26:07;;;;;;;21.27;13.63;;;;;;;14.34;53.03;102677.00;3574389;40;20221;-63
2022/04/29 09:28:35;;;;;;;20.10;12.93;;;;;;;14.39;52.96;102666.81;3580265;39;20056;-62
2022/04/29 09:31:03;;;;;;;23.58;13.20;;;;;;;14.50;53.01;102677.16;3577906;39;20095;-62
2022/04/29 09:33:32;;;;;;;22.40;13.48;;;;;;;14.55;52.03;102683.22;3585740;40;20044;-62
2022/04/29 09:36:00;;;;;;;20.98;13.20;;;;;;;14.50;51.97;102656.38;3582584;40;20055;-62
2022/04/29 09:41:22;;;;;;;23.45;13.15;;;;;;;14.58;52.42;102675.81;3573001;40;20098;-63
2022/04/29 09:43:48;;;;;;;21.05;13.13;;;;;;;14.60;52.05;102679.34;3581661;40;20104;-63
2022/04/29 09:46:18;;;;;;;23.23;13.63;;;;;;;14.46;52.71;102684.53;3571090;40;20048;-62
2022/04/29 09:48:51;;;;;;;20.13;13.38;;;;;;;14.35;52.95;102670.63;3582348;40;20057;-63
2022/04/29 09:51:41;;;;;;;19.87;13.17;;;;;;;14.23;53.60;102680.22;3584420;40;20060;-63
2022/04/29 09:54:20;;;;;;;19.58;13.52;;;;;;;14.22;53.59;102673.06;3571912;39;20226;-63
2022/04/29 09:57:03;;;;;;;22.05;12.95;;;;;;;14.14;53.90;102665.31;3574258;40;20052;-63
2022/04/29 09:59:37;;;;;;;22.27;12.93;;;;;;;14.09;54.38;102658.38;3582776;40;20109;-63
2022/04/29 10:02:05;;;;;;;20.08;13.00;;;;;;;14.08;53.91;102667.41;3580370;40;20052;-62
2022/04/29 10:04:37;;;;;;;22.20;12.75;;;;;;;13.94;54.49;102652.72;3586641;40;20039;-65
2022/04/29 10:07:06;;;;;;;20.40;12.27;;;;;;;13.93;54.36;102660.91;3586584;40;20103;-62
2022/04/29 10:09:35;;;;;;;20.05;13.15;;;;;;;13.86;54.93;102664.81;3586175;40;20125;-63
2022/04/29 10:12:10;;;;;;;19.83;12.70;;;;;;;13.84;55.49;102655.94;3572390;39;20072;-63
2022/04/29 10:14:38;;;;;;;22.67;13.20;;;;;;;13.87;54.83;102661.19;3581748;40;20056;-63
2022/04/29 10:22:50;;;;;;;22.52;12.65;;;;;;;13.85;54.89;102652.25;3591096;39;20174;-64
2022/04/29 10:25:18;;;;;;;20.92;13.43;;;;;;;13.87;54.94;102640.44;3596756;39;20052;-64
2022/04/29 10:27:45;;;;;;;25.52;13.25;;;;;;;13.81;55.46;102632.63;3584014;39;20052;-64
2022/04/29 10:30:12;;;;;;;22.00;12.15;;;;;;;13.84;55.34;102647.81;3585115;40;20332;-64
2022/04/29 10:33:10;;;;;;;20.75;13.02;;;;;;;13.82;54.78;102652.41;3583237;40;20071;-65
2022/04/29 10:35:53;;;;;;;23.73;13.48;;;;;;;13.88;55.34;102646.72;3585716;40;20048;-64
2022/04/29 10:38:31;;;;;;;17.80;12.48;;;;;;;13.95;54.99;102642.78;3587688;39;20052;-65
2022/04/29 10:41:20;;;;;;;18.38;12.40;;;;;;;14.01;54.68;102645.19;3582521;40;20064;-64
2022/04/29 10:43:52;;;;;;;20.38;12.57;;;;;;;14.04;54.75;102646.88;3576560;39;20410;-65
2022/04/29 10:46:38;;;;;;;20.38;12.32;;;;;;;14.06;54.68;102653.97;3582141;40;20472;-64
2022/04/29 10:49:24;;;;;;;20.90;11.60;;;;;;;14.08;54.51;102648.47;3586086;40;20723;-64
2022/04/29 10:51:52;;;;;;;21.42;11.98;;;;;;;14.17;54.38;102643.50;3586845;40;20054;-64
2022/04/29 10:54:33;;;;;;;21.08;12.60;;;;;;;14.15;53.81;102640.00;3589389;40;20348;-64
2022/04/29 10:57:06;;;;;;;19.10;11.80;;;;;;;14.14;54.02;102638.28;3575968;39;20717;-64
2022/04/29 11:00:00;;;;;;;20.40;12.40;;;;;;;14.08;54.71;102630.44;3586869;40;20052;-63
2022/04/29 11:02:29;;;;;;;20.67;12.23;;;;;;;13.94;54.43;102614.00;3587784;40;20078;-64
2022/04/29 11:04:58;;;;;;;20.38;11.88;;;;;;;14.04;54.41;102620.69;3582351;40;20048;-64
2022/04/29 11:07:38;;;;;;;19.08;11.63;;;;;;;14.07;54.95;102625.97;3581501;40;20056;-64
2022/04/29 11:10:07;;;;;;;16.92;10.93;;;;;;;14.09;54.70;102624.06;3585626;40;20048;-65
2022/04/29 11:12:41;;;;;;;15.88;11.15;;;;;;;14.11;54.35;102614.06;3578363;39;20114;-65
2022/04/29 11:15:21;;;;;;;19.58;12.45;;;;;;;14.21;54.33;102630.75;3578604;40;20058;-63
2022/04/29 11:17:47;;;;;;;19.75;12.02;;;;;;;14.25;54.10;102628.75;3583045;40;20052;-65
2022/04/29 11:20:25;;;;;;;19.63;11.77;;;;;;;14.16;53.81;102603.88;3588141;40;20048;-64
2022/04/29 11:26:10;;;;;;;16.58;10.77;;;;;;;14.34;53.46;102622.91;3587738;40;20100;-67
2022/04/29 11:28:38;;;;;;;17.63;10.60;;;;;;;14.45;53.42;102628.63;3571712;39;20075;-65
2022/04/29 11:31:08;;;;;;;18.48;11.65;;;;;;;14.57;53.57;102625.38;3585421;40;20060;-64
2022/04/29 11:33:35;;;;;;;15.73;10.65;;;;;;;14.65;53.24;102624.09;3590273;40;20056;-64
2022/04/29 11:36:04;;;;;;;20.10;10.73;;;;;;;14.79;53.46;102618.88;3590680;40;20315;-64
2022/04/29 11:38:32;;;;;;;19.20;11.20;;;;;;;15.01;52.81;102616.81;3579308;40;20060;-64
2022/04/29 11:41:00;;;;;;;17.02;9.90;;;;;;;15.25;52.31;102605.63;3587044;40;20100;-64
2022/04/29 11:43:27;;;;;;;22.55;10.27;;;;;;;15.37;51.40;102577.88;3587386;40;20047;-64
2022/04/29 11:46:07;;;;;;;22.65;10.48;;;;;;;15.83;50.18;102612.50;3572448;39;20105;-65
2022/04/29 11:48:34;;;;;;;17.70;9.85;;;;;;;15.99;49.94;102614.25;3585030;40;20130;-64
2022/04/29 11:51:00;;;;;;;14.15;9.30;;;;;;;16.32;49.02;102620.56;3584162;40;20047;-64